Time;durP1;ratioP1;P1;durP2;ratioP2;P2;SDS_P1;SDS_P2;PMS_P1;PMS_P2;Temp;Humidity;BMP_temperature;BMP_pressure;BME280_temperature;BME280_humidity;BME280_pressure;Samples;Min_cycle;Max_cycle;Signal;HPM_P1;HPM_P2
2021/07/29 00:00:59;;;;;;;6.47;3.38;;;;;;;15.13;96.77;96141.56;5061916;28;20090;-78
2021/07/29 00:03:24;;;;;;;7.88;3.30;;;;;;;15.22;95.48;96158.94;5096453;28;20039;-76
2021/07/29 00:05:50;;;;;;;5.33;2.90;;;;;;;15.19;95.84;96142.59;5081706;28;20029;-76
2021/07/29 00:08:18;;;;;;;5.30;2.77;;;;;;;15.15;96.02;96139.53;5067388;28;20032;-77
2021/07/29 00:10:44;;;;;;;7.00;2.88;;;;;;;15.20;95.67;96144.28;5077115;28;20040;-76
2021/07/29 00:13:10;;;;;;;5.13;2.90;;;;;;;15.14;95.39;96145.84;5074742;28;20051;-76
2021/07/29 00:15:39;;;;;;;8.43;3.53;;;;;;;15.04;95.70;96148.81;5087381;28;20033;-76
2021/07/29 00:20:33;;;;;;;5.28;2.90;;;;;;;14.98;96.61;96141.59;5098149;28;20055;-76
2021/07/29 00:23:01;;;;;;;7.83;3.40;;;;;;;14.91;97.29;96142.56;5064724;28;20085;-77
2021/07/29 00:25:28;;;;;;;6.17;3.40;;;;;;;14.80;97.62;96143.88;5063634;28;20859;-76
2021/07/29 00:27:55;;;;;;;6.00;3.20;;;;;;;14.82;97.56;96141.84;5064024;28;20028;-76
2021/07/29 00:30:23;;;;;;;7.17;3.03;;;;;;;14.83;98.02;96148.81;5062538;28;20187;-76
2021/07/29 00:32:54;;;;;;;5.60;3.20;;;;;;;14.74;98.09;96142.78;5065156;28;20032;-76
2021/07/29 00:35:21;;;;;;;6.87;3.40;;;;;;;14.73;98.34;96141.16;5075119;28;20061;-76
2021/07/29 00:37:53;;;;;;;6.07;3.47;;;;;;;14.62;99.24;96139.00;5060482;28;20032;-76
2021/07/29 00:40:22;;;;;;;5.90;3.37;;;;;;;14.62;99.24;96139.00;5077861;28;20040;-77
2021/07/29 00:42:48;;;;;;;7.63;3.60;;;;;;;14.67;99.01;96139.25;5080549;28;20488;-76
2021/07/29 00:45:14;;;;;;;6.87;3.20;;;;;;;14.67;98.84;96139.25;5080280;28;20111;-76
2021/07/29 00:47:43;;;;;;;4.97;3.07;;;;;;;14.68;98.45;96134.78;5070426;28;20113;-76
2021/07/29 00:50:11;;;;;;;5.90;3.30;;;;;;;14.74;97.69;96132.19;5037489;28;20120;-76
2021/07/29 00:52:38;;;;;;;6.43;3.10;;;;;;;14.76;97.39;96130.19;5058146;28;20123;-76
2021/07/29 00:55:07;;;;;;;6.07;3.33;;;;;;;14.74;97.74;96124.25;5065322;28;20016;-76
2021/07/29 00:57:34;;;;;;;6.87;2.80;;;;;;;14.80;96.67;96120.88;5080147;28;20495;-76
2021/07/29 01:00:01;;;;;;;5.27;3.10;;;;;;;14.84;96.38;96116.81;5078772;28;20043;-77
2021/07/29 01:02:27;;;;;;;5.83;3.17;;;;;;;14.80;96.44;96115.56;5069530;28;20032;-77
2021/07/29 01:04:55;;;;;;;4.90;2.80;;;;;;;14.80;96.12;96117.41;5049674;28;20044;-76
2021/07/29 01:07:23;;;;;;;6.90;3.37;;;;;;;14.85;95.84;96118.50;5060224;28;20036;-76
2021/07/29 01:09:48;;;;;;;5.40;3.30;;;;;;;14.83;95.74;96117.03;5060892;28;20048;-76
2021/07/29 01:12:14;;;;;;;4.90;2.67;;;;;;;14.81;95.79;96117.19;5055510;28;20051;-76
2021/07/29 01:14:40;;;;;;;5.17;2.77;;;;;;;14.90;94.63;96114.44;5064774;28;20037;-77
2021/07/29 01:17:08;;;;;;;4.43;2.70;;;;;;;14.95;94.12;96119.97;5062357;28;20062;-76
2021/07/29 01:19:33;;;;;;;6.00;3.27;;;;;;;14.92;93.84;96120.34;5064256;28;20035;-76
2021/07/29 01:21:59;;;;;;;4.63;2.73;;;;;;;14.96;93.22;96124.28;5080897;28;20024;-77
2021/07/29 01:24:27;;;;;;;4.80;2.70;;;;;;;14.92;93.57;96123.81;5056483;28;20041;-76
2021/07/29 01:26:53;;;;;;;7.40;2.93;;;;;;;14.93;92.91;96114.88;5040642;28;20060;-76
2021/07/29 01:29:19;;;;;;;8.73;3.13;;;;;;;14.90;92.82;96117.09;5070256;28;20131;-77
2021/07/29 01:31:45;;;;;;;6.23;3.23;;;;;;;14.84;92.83;96122.13;5098297;28;20036;-76
2021/07/29 01:34:11;;;;;;;6.07;3.40;;;;;;;14.82;92.77;96121.50;5073863;28;20064;-77
2021/07/29 01:36:38;;;;;;;6.23;3.00;;;;;;;14.87;92.17;96120.13;5077498;28;20077;-76
2021/07/29 01:39:10;;;;;;;6.37;3.00;;;;;;;14.82;91.97;96120.66;5059531;28;20025;-76
2021/07/29 01:41:36;;;;;;;4.23;2.23;;;;;;;14.78;91.68;96114.94;5035696;28;20045;-76
2021/07/29 01:44:02;;;;;;;7.93;3.07;;;;;;;14.73;92.56;96114.69;5054576;28;20033;-76
2021/07/29 01:46:27;;;;;;;5.97;2.57;;;;;;;14.65;92.48;96113.97;5055139;28;20045;-76
2021/07/29 01:48:54;;;;;;;4.50;2.40;;;;;;;14.67;92.46;96119.91;5063206;28;20024;-76
2021/07/29 01:51:21;;;;;;;10.43;3.10;;;;;;;14.67;92.37;96125.22;5096688;28;20038;-76
2021/07/29 01:53:47;;;;;;;5.63;3.00;;;;;;;14.63;92.48;96124.75;5070439;28;20473;-76
2021/07/29 01:56:14;;;;;;;5.90;3.03;;;;;;;14.65;91.50;96122.72;5037833;28;20119;-76
2021/07/29 01:58:40;;;;;;;4.93;2.83;;;;;;;14.71;90.41;96121.97;5071591;28;20508;-77
2021/07/29 02:01:06;;;;;;;7.40;3.17;;;;;;;14.72;90.90;96123.66;5074872;28;20060;-76
2021/07/29 02:03:32;;;;;;;5.23;2.80;;;;;;;14.72;90.58;96125.44;5060327;28;20036;-76
2021/07/29 02:06:02;;;;;;;5.83;3.40;;;;;;;14.69;91.06;96124.03;5078081;28;20032;-76
2021/07/29 02:08:37;;;;;;;4.37;2.70;;;;;;;14.72;90.32;96123.66;5078005;28;20029;-76
2021/07/29 02:11:03;;;;;;;6.27;2.93;;;;;;;14.73;90.61;96125.28;5084184;28;20495;-77
2021/07/29 02:13:29;;;;;;;5.90;3.00;;;;;;;14.77;90.49;96120.44;5058479;28;20037;-76
2021/07/29 02:15:55;;;;;;;4.22;2.70;;;;;;;14.80;90.13;96125.34;5073747;28;20043;-76
2021/07/29 02:18:22;;;;;;;5.47;2.93;;;;;;;14.81;90.07;96119.03;5058437;28;20075;-76
2021/07/29 02:20:50;;;;;;;4.85;2.88;;;;;;;14.83;90.13;96119.69;5057723;28;20020;-76
2021/07/29 02:23:15;;;;;;;5.90;2.97;;;;;;;14.82;90.33;96118.88;5059230;28;20485;-77
2021/07/29 02:25:43;;;;;;;5.43;2.80;;;;;;;14.82;90.59;96118.03;5062446;28;20040;-77
2021/07/29 02:28:09;;;;;;;5.43;2.88;;;;;;;14.80;90.85;96120.88;5079458;28;20028;-77
2021/07/29 02:30:34;;;;;;;4.47;2.67;;;;;;;14.76;91.63;96114.31;5095073;28;20734;-76
2021/07/29 02:33:01;;;;;;;5.72;2.80;;;;;;;14.73;93.03;96124.47;5075886;28;20063;-76
2021/07/29 02:35:27;;;;;;;7.93;3.97;;;;;;;14.61;95.92;96126.75;5074713;28;20039;-76
2021/07/29 02:37:52;;;;;;;6.53;3.60;;;;;;;14.60;97.50;96120.66;5076227;28;20036;-76
2021/07/29 02:40:18;;;;;;;6.15;3.60;;;;;;;14.51;98.74;96123.59;5071663;28;20394;-77
2021/07/29 02:42:44;;;;;;;6.45;3.38;;;;;;;14.49;98.46;96133.53;5041649;28;20116;-76
2021/07/29 02:45:10;;;;;;;6.57;3.57;;;;;;;14.50;98.50;96136.00;5057262;28;20033;-77
2021/07/29 02:47:36;;;;;;;4.73;3.00;;;;;;;14.52;98.60;96138.47;5039708;28;20139;-77
2021/07/29 02:50:04;;;;;;;6.22;3.20;;;;;;;14.52;98.28;96141.09;5049875;28;20062;-76
2021/07/29 02:52:30;;;;;;;4.37;3.10;;;;;;;14.51;98.42;96136.81;5063799;28;20036;-77
2021/07/29 02:54:55;;;;;;;5.63;3.40;;;;;;;14.49;98.74;96141.47;5075603;28;20535;-76
2021/07/29 02:57:21;;;;;;;6.03;3.33;;;;;;;14.45;98.65;96143.66;5075653;28;20046;-76
2021/07/29 02:59:47;;;;;;;6.97;3.33;;;;;;;14.29;99.14;96146.53;5058456;28;20024;-76
2021/07/29 03:02:12;;;;;;;6.33;3.70;;;;;;;14.21;100.00;96142.13;5074091;28;20452;-76
2021/07/29 03:04:38;;;;;;;6.77;3.73;;;;;;;14.27;99.96;96144.03;5075266;28;20096;-76
2021/07/29 03:07:04;;;;;;;5.60;3.00;;;;;;;14.25;99.64;96139.94;5075877;28;20051;-76
2021/07/29 03:09:30;;;;;;;5.20;3.40;;;;;;;14.20;99.86;96137.84;5077848;28;20047;-76
2021/07/29 03:11:57;;;;;;;6.03;3.67;;;;;;;14.18;98.99;96136.38;5074600;28;20037;-77
2021/07/29 03:14:23;;;;;;;6.60;3.47;;;;;;;14.19;99.01;96138.06;5079510;28;20043;-77
2021/07/29 03:16:49;;;;;;;8.10;3.73;;;;;;;14.15;99.66;96142.84;5081664;28;20047;-78
2021/07/29 03:19:14;;;;;;;9.83;3.27;;;;;;;14.16;99.39;96141.88;5081044;28;20027;-77
2021/07/29 03:21:40;;;;;;;7.07;3.50;;;;;;;14.13;98.93;96145.69;5096379;28;20038;-78
2021/07/29 03:24:06;;;;;;;6.63;3.10;;;;;;;14.09;99.59;96144.44;5060960;28;20043;-76
2021/07/29 03:26:33;;;;;;;5.80;2.80;;;;;;;14.05;99.47;96143.16;5069927;28;20136;-78
2021/07/29 03:28:59;;;;;;;4.60;2.93;;;;;;;14.03;99.86;96144.34;5065700;28;20054;-76
2021/07/29 03:31:25;;;;;;;8.07;3.20;;;;;;;14.02;100.00;96138.25;5079218;28;20048;-77
2021/07/29 03:33:51;;;;;;;8.37;3.47;;;;;;;14.06;100.00;96143.97;5062765;28;20032;-76
2021/07/29 03:36:19;;;;;;;7.37;4.53;;;;;;;14.05;99.58;96143.16;5081253;28;20037;-77
2021/07/29 03:38:45;;;;;;;9.43;6.43;;;;;;;14.05;99.67;96142.31;5067620;28;20039;-76
2021/07/29 03:41:11;;;;;;;6.67;3.87;;;;;;;14.04;99.48;96136.22;5077406;28;20037;-77
2021/07/29 03:43:37;;;;;;;6.03;3.73;;;;;;;14.04;98.93;96138.88;5057299;28;20029;-76
2021/07/29 03:46:04;;;;;;;6.83;3.57;;;;;;;14.01;98.68;96146.34;5055769;28;20048;-77
2021/07/29 03:48:30;;;;;;;5.87;3.57;;;;;;;14.05;98.85;96142.31;5039900;28;20035;-76
2021/07/29 03:50:56;;;;;;;5.30;3.27;;;;;;;14.04;97.98;96144.16;5038974;28;20094;-77
2021/07/29 03:53:23;;;;;;;6.73;3.53;;;;;;;13.99;99.36;96151.00;5051774;28;20044;-77
2021/07/29 03:55:49;;;;;;;6.15;3.33;;;;;;;13.98;99.03;96146.69;5057746;28;20110;-77
2021/07/29 03:58:14;;;;;;;5.47;3.20;;;;;;;14.06;98.76;96141.34;5057026;28;20048;-77
2021/07/29 04:00:40;;;;;;;7.10;3.37;;;;;;;14.09;98.46;96144.44;5054872;28;20044;-76
2021/07/29 04:03:07;;;;;;;6.53;3.70;;;;;;;14.10;98.50;96146.06;5041860;28;20036;-77
2021/07/29 04:05:33;;;;;;;6.07;3.77;;;;;;;14.08;99.04;96150.75;5073320;28;20029;-76
2021/07/29 04:07:59;;;;;;;6.27;3.47;;;;;;;14.17;98.85;96145.34;5044629;28;20016;-76
2021/07/29 04:10:25;;;;;;;5.80;3.50;;;;;;;14.25;97.23;96151.38;5057239;28;20143;-76
2021/07/29 04:12:52;;;;;;;8.20;3.87;;;;;;;14.30;95.86;96143.69;5021649;28;20072;-76
2021/07/29 04:15:18;;;;;;;7.50;3.80;;;;;;;14.36;95.31;96150.06;5038519;28;20056;-76
2021/07/29 04:17:43;;;;;;;7.43;3.90;;;;;;;14.41;94.49;96141.56;5037923;28;20029;-77
2021/07/29 04:20:09;;;;;;;5.93;3.53;;;;;;;14.47;94.75;96146.13;5055873;28;20118;-76
2021/07/29 04:22:36;;;;;;;5.20;3.20;;;;;;;14.53;93.60;96150.72;5054492;28;20036;-76
2021/07/29 04:25:03;;;;;;;6.70;3.43;;;;;;;14.58;92.58;96148.31;5072841;28;20036;-77
2021/07/29 04:27:29;;;;;;;8.93;5.70;;;;;;;14.67;93.55;96154.31;5066740;28;20047;-78
2021/07/29 04:29:56;;;;;;;6.27;3.50;;;;;;;14.73;93.53;96146.44;5079840;28;20108;-78
2021/07/29 04:32:22;;;;;;;6.77;3.30;;;;;;;14.79;93.71;96151.00;5051878;28;20028;-81
2021/07/29 04:34:48;;;;;;;7.57;4.17;;;;;;;14.85;93.43;96155.56;5056115;28;21299;-78
2021/07/29 04:37:15;;;;;;;7.55;3.25;;;;;;;14.89;93.03;96150.69;5052477;28;21607;-77
2021/07/29 04:39:42;;;;;;;8.47;3.63;;;;;;;14.98;92.47;96154.03;5070635;28;20044;-81
2021/07/29 04:42:09;;;;;;;6.73;3.70;;;;;;;15.00;92.61;96157.31;5086172;28;20031;-79
2021/07/29 04:44:35;;;;;;;7.32;3.60;;;;;;;15.02;92.77;96150.84;5086388;28;20031;-79
2021/07/29 04:47:02;;;;;;;6.45;3.55;;;;;;;15.08;92.15;96160.66;5059068;28;20036;-78
2021/07/29 04:49:27;;;;;;;5.88;3.05;;;;;;;15.11;92.70;96153.34;5054974;28;20024;-78
2021/07/29 04:51:53;;;;;;;9.35;3.10;;;;;;;15.16;91.98;96157.06;5053544;28;20032;-81
2021/07/29 04:54:19;;;;;;;7.10;3.33;;;;;;;15.21;91.83;96153.84;5072428;28;20093;-80
2021/07/29 04:56:45;;;;;;;6.35;3.22;;;;;;;15.26;90.52;96156.75;5072851;28;20020;-79
2021/07/29 04:59:10;;;;;;;8.13;3.70;;;;;;;15.35;90.12;96160.09;5071809;28;20029;-78
2021/07/29 05:01:38;;;;;;;6.38;2.97;;;;;;;15.41;90.02;96154.03;5081111;28;20024;-78
2021/07/29 05:04:04;;;;;;;8.02;3.20;;;;;;;15.48;90.06;96155.72;5062480;28;20024;-80
2021/07/29 05:06:30;;;;;;;9.88;4.05;;;;;;;15.53;89.90;96153.31;5049208;28;20032;-80
2021/07/29 05:08:56;;;;;;;4.85;2.70;;;;;;;15.56;89.63;96158.22;5064858;28;20036;-81
2021/07/29 05:11:22;;;;;;;5.80;3.10;;;;;;;15.59;89.74;96157.00;5068409;28;20039;-77
2021/07/29 05:13:47;;;;;;;5.80;2.90;;;;;;;15.68;88.70;96161.19;5053016;28;20029;-81
2021/07/29 05:16:13;;;;;;;7.03;3.22;;;;;;;15.73;89.15;96163.28;5055984;28;20035;-79
2021/07/29 05:18:39;;;;;;;7.32;3.10;;;;;;;15.76;88.74;96160.22;5067123;28;20039;-78
2021/07/29 05:21:07;;;;;;;11.93;3.30;;;;;;;15.89;88.61;96155.00;5066667;28;20085;-78
2021/07/29 05:23:36;;;;;;;10.48;3.40;;;;;;;15.99;88.40;96152.81;5044940;28;20037;-79
2021/07/29 05:26:04;;;;;;;8.38;3.63;;;;;;;16.09;88.59;96157.78;5074138;28;20031;-79
2021/07/29 05:28:39;;;;;;;11.82;3.47;;;;;;;16.14;88.29;96157.22;5078901;28;20043;-81
2021/07/29 05:31:08;;;;;;;7.80;2.95;;;;;;;16.22;88.21;96157.03;5056666;28;20032;-80
2021/07/29 05:33:34;;;;;;;6.68;3.13;;;;;;;16.31;87.91;96149.75;5061924;28;20025;-80
2021/07/29 05:36:01;;;;;;;6.18;2.88;;;;;;;16.37;87.79;96148.97;5069501;28;20124;-79
2021/07/29 05:38:26;;;;;;;6.05;3.08;;;;;;;16.48;88.74;96156.34;5061749;28;20052;-78
2021/07/29 05:40:57;;;;;;;7.18;3.25;;;;;;;16.56;88.62;96150.84;5061428;28;20016;-79
2021/07/29 05:43:25;;;;;;;5.57;2.90;;;;;;;16.66;89.85;96159.25;5076012;28;20489;-80
2021/07/29 05:45:51;;;;;;;7.57;3.60;;;;;;;16.69;90.30;96152.75;5057585;28;20037;-80
2021/07/29 05:48:17;;;;;;;9.85;3.20;;;;;;;16.76;89.16;96153.63;5074224;28;20016;-80
2021/07/29 05:50:43;;;;;;;5.85;3.20;;;;;;;16.88;88.34;96153.88;5065963;28;20032;-79
2021/07/29 05:53:09;;;;;;;5.15;3.08;;;;;;;16.92;87.76;96155.09;5054756;28;20047;-78
2021/07/29 05:55:34;;;;;;;5.20;3.33;;;;;;;16.94;86.57;96156.53;5073739;28;20478;-79
2021/07/29 05:58:00;;;;;;;4.85;3.17;;;;;;;17.07;86.25;96161.06;5062455;28;20108;-78
2021/07/29 06:00:27;;;;;;;4.15;2.75;;;;;;;17.13;86.26;96154.09;5064050;28;20052;-78
2021/07/29 06:02:53;;;;;;;6.70;3.25;;;;;;;17.19;85.75;96153.31;5061264;28;20016;-79
2021/07/29 06:05:19;;;;;;;6.72;3.15;;;;;;;17.35;85.94;96152.09;5058613;28;20032;-79
2021/07/29 06:07:44;;;;;;;5.60;3.22;;;;;;;17.41;84.10;96148.63;5067274;28;20552;-79
2021/07/29 06:10:10;;;;;;;5.18;2.65;;;;;;;17.41;83.93;96157.41;5056326;28;20048;-80
2021/07/29 06:12:37;;;;;;;6.82;2.95;;;;;;;17.59;83.67;96154.13;5076122;28;20096;-80
2021/07/29 06:15:03;;;;;;;7.03;3.63;;;;;;;17.63;83.89;96160.69;5078927;28;20033;-79
2021/07/29 06:17:34;;;;;;;7.60;3.20;;;;;;;17.74;82.01;96161.09;5054334;28;20092;-79
2021/07/29 06:20:07;;;;;;;5.40;3.40;;;;;;;17.89;81.63;96159.88;5060746;28;20043;-78
2021/07/29 06:22:33;;;;;;;5.53;3.10;;;;;;;17.84;81.21;96161.50;5060925;28;20032;-80
2021/07/29 06:24:59;;;;;;;4.85;3.13;;;;;;;17.97;81.08;96156.16;5075224;28;20044;-80
2021/07/29 06:27:26;;;;;;;5.53;3.00;;;;;;;18.04;79.22;96149.03;5068096;28;20892;-79
2021/07/29 06:29:52;;;;;;;5.22;2.78;;;;;;;18.22;79.05;96150.22;5066674;28;20037;-80
2021/07/29 06:32:18;;;;;;;4.55;2.83;;;;;;;18.21;80.11;96160.03;5076692;28;20508;-78
2021/07/29 06:34:43;;;;;;;5.38;3.03;;;;;;;18.39;78.60;96148.72;5078782;28;20051;-79
2021/07/29 06:37:10;;;;;;;4.72;2.83;;;;;;;18.49;78.64;96162.41;5059739;28;20040;-80
2021/07/29 06:39:36;;;;;;;5.60;2.95;;;;;;;18.71;77.36;96162.94;5083170;28;20037;-79
2021/07/29 06:42:02;;;;;;;4.72;2.95;;;;;;;18.52;77.83;96166.50;5081842;28;20056;-78
2021/07/29 06:44:29;;;;;;;5.65;3.05;;;;;;;18.67;76.85;96160.88;5063774;28;20264;-80
2021/07/29 06:46:54;;;;;;;6.03;3.33;;;;;;;18.79;77.44;96153.91;5052446;28;20104;-78
2021/07/29 06:49:20;;;;;;;6.55;3.13;;;;;;;18.80;75.99;96164.34;5077534;28;20056;-81
2021/07/29 06:51:46;;;;;;;7.10;3.17;;;;;;;19.02;75.84;96159.53;5056289;28;20032;-80
2021/07/29 06:54:11;;;;;;;5.60;2.85;;;;;;;19.17;75.49;96155.72;5070602;28;20060;-79
2021/07/29 06:56:37;;;;;;;4.80;3.13;;;;;;;19.27;75.94;96156.88;5054639;28;20032;-79
2021/07/29 06:59:03;;;;;;;6.80;2.90;;;;;;;19.25;75.31;96156.31;5085634;28;20720;-80
2021/07/29 07:01:29;;;;;;;7.00;3.53;;;;;;;19.41;74.71;96160.28;5068639;28;20039;-79
2021/07/29 07:03:55;;;;;;;6.60;2.83;;;;;;;19.34;74.99;96159.50;5079647;28;20032;-79
2021/07/29 07:06:21;;;;;;;10.73;3.20;;;;;;;19.38;74.42;96158.03;5061898;28;20438;-79
2021/07/29 07:08:46;;;;;;;7.70;3.58;;;;;;;19.43;74.47;96160.06;5085503;28;20032;-81
2021/07/29 07:11:17;;;;;;;4.90;2.50;;;;;;;19.50;73.74;96166.97;5086094;28;20485;-81
2021/07/29 07:13:44;;;;;;;4.53;2.88;;;;;;;19.81;72.30;96162.66;5067783;28;20516;-79
2021/07/29 07:16:14;;;;;;;4.65;2.88;;;;;;;20.02;71.53;96161.47;5061712;28;20470;-80
2021/07/29 07:18:41;;;;;;;4.53;2.80;;;;;;;20.05;71.77;96162.84;5081530;28;20037;-79
2021/07/29 07:21:09;;;;;;;4.30;2.67;;;;;;;19.82;71.10;96164.31;5073896;28;20028;-80
2021/07/29 07:23:38;;;;;;;5.47;2.80;;;;;;;20.11;72.32;96169.97;5076598;28;20105;-81
2021/07/29 07:26:04;;;;;;;5.75;2.50;;;;;;;20.34;70.95;96161.31;5059359;28;20036;-79
2021/07/29 07:28:30;;;;;;;5.00;2.90;;;;;;;20.59;71.29;96158.59;5054607;28;20115;-78
2021/07/29 07:30:55;;;;;;;5.22;2.80;;;;;;;21.18;69.72;96151.66;5067320;28;20063;-81
2021/07/29 07:33:21;;;;;;;7.63;3.17;;;;;;;21.53;68.92;96154.44;5080465;28;20062;-80
2021/07/29 07:35:49;;;;;;;4.22;2.38;;;;;;;21.12;69.34;96149.88;5085485;28;20031;-79
2021/07/29 07:38:15;;;;;;;5.05;2.90;;;;;;;21.56;67.01;96153.16;5080070;28;20104;-79
2021/07/29 07:40:41;;;;;;;4.20;2.50;;;;;;;21.53;66.78;96150.94;5066368;28;20041;-79
2021/07/29 07:43:08;;;;;;;4.78;2.53;;;;;;;21.69;64.90;96152.13;5078900;28;20031;-79
2021/07/29 07:45:35;;;;;;;4.25;2.42;;;;;;;22.25;62.44;96158.81;5077832;28;20037;-80
2021/07/29 07:48:02;;;;;;;5.20;2.50;;;;;;;21.98;61.78;96156.56;5064222;28;20100;-79
2021/07/29 07:50:28;;;;;;;5.63;3.03;;;;;;;22.65;60.30;96150.81;5069648;28;20088;-79
2021/07/29 07:52:54;;;;;;;4.10;2.22;;;;;;;23.40;58.23;96149.00;5058518;28;20118;-78
2021/07/29 07:55:19;;;;;;;4.85;2.60;;;;;;;23.53;57.09;96146.81;5056098;28;20074;-79
2021/07/29 07:57:45;;;;;;;4.15;2.42;;;;;;;23.87;56.65;96151.41;5077355;28;20028;-79
2021/07/29 08:00:11;;;;;;;3.90;2.33;;;;;;;23.33;55.52;96153.72;5064464;28;20028;-79
2021/07/29 08:02:37;;;;;;;5.18;2.30;;;;;;;23.81;55.83;96150.53;5062371;28;20088;-81
2021/07/29 08:05:03;;;;;;;4.88;2.47;;;;;;;23.61;54.38;96144.78;5059951;28;20081;-81
2021/07/29 08:07:28;;;;;;;4.70;2.25;;;;;;;23.91;53.27;96137.25;5070066;28;20059;-81
2021/07/29 08:09:56;;;;;;;4.25;2.25;;;;;;;24.36;52.06;96140.81;5056337;28;20023;-82
2021/07/29 08:12:22;;;;;;;4.65;2.35;;;;;;;24.51;51.92;96135.66;5056229;28;20036;-79
2021/07/29 08:14:48;;;;;;;4.80;2.38;;;;;;;24.16;53.31;96141.34;5059681;28;20059;-80
2021/07/29 08:17:13;;;;;;;4.10;2.10;;;;;;;24.33;52.51;96139.44;5073232;28;20115;-80
2021/07/29 08:19:39;;;;;;;5.03;2.47;;;;;;;24.65;51.06;96134.25;5076316;28;20413;-79
2021/07/29 08:22:05;;;;;;;6.97;2.90;;;;;;;24.61;50.72;96135.78;5064433;28;20030;-80
2021/07/29 08:24:33;;;;;;;5.68;2.60;;;;;;;26.20;48.35;96130.03;5062482;28;20703;-79
2021/07/29 08:26:59;;;;;;;4.93;2.28;;;;;;;26.23;48.73;96137.59;5079921;28;20028;-80
2021/07/29 08:29:25;;;;;;;5.55;2.60;;;;;;;26.06;47.92;96140.44;5079138;28;20096;-79
2021/07/29 08:31:51;;;;;;;4.32;2.42;;;;;;;25.98;47.27;96132.03;5063027;28;20028;-80
2021/07/29 08:34:17;;;;;;;7.30;2.80;;;;;;;25.49;47.35;96140.25;5085125;28;20093;-78
2021/07/29 08:36:42;;;;;;;5.03;2.45;;;;;;;25.14;47.83;96136.94;5059772;28;20037;-80
2021/07/29 08:39:08;;;;;;;5.93;2.35;;;;;;;23.57;51.24;96141.78;5056231;28;20472;-80
2021/07/29 08:41:35;;;;;;;4.80;2.80;;;;;;;23.19;53.61;96134.41;5075497;28;20027;-79
2021/07/29 08:44:01;;;;;;;4.93;2.53;;;;;;;22.45;53.89;96147.72;5056077;28;20058;-79
2021/07/29 08:46:27;;;;;;;4.88;2.97;;;;;;;21.73;57.14;96147.94;5062634;28;20134;-80
2021/07/29 08:48:53;;;;;;;4.70;2.88;;;;;;;22.03;56.65;96151.34;5051019;28;20054;-79
2021/07/29 08:51:22;;;;;;;4.57;2.53;;;;;;;22.76;55.25;96147.25;5048018;28;20553;-79
2021/07/29 08:53:52;;;;;;;5.43;2.70;;;;;;;24.73;50.59;96127.59;5062884;28;20032;-79
2021/07/29 08:56:28;;;;;;;6.85;2.97;;;;;;;25.00;48.05;96130.31;5077202;28;20092;-79
2021/07/29 08:58:54;;;;;;;4.78;2.55;;;;;;;25.74;45.89;96118.09;5049133;28;20032;-79
2021/07/29 09:01:20;;;;;;;4.90;2.55;;;;;;;26.36;44.78;96119.31;5067089;28;20024;-79
2021/07/29 09:03:52;;;;;;;4.43;2.50;;;;;;;25.73;46.07;96128.06;5072873;28;20032;-80
2021/07/29 09:06:17;;;;;;;5.70;2.50;;;;;;;25.73;44.63;96128.06;5071600;28;20028;-79
2021/07/29 09:08:53;;;;;;;4.60;2.42;;;;;;;25.38;46.02;96115.09;5061907;28;20032;-79
2021/07/29 09:11:27;;;;;;;4.47;2.70;;;;;;;26.02;43.89;96116.97;5063574;28;20090;-79
2021/07/29 09:14:13;;;;;;;6.82;2.75;;;;;;;25.59;44.64;96119.59;5059443;28;20073;-78
2021/07/29 09:16:58;;;;;;;4.93;2.80;;;;;;;26.30;42.38;96113.91;5066320;28;20039;-79
2021/07/29 09:19:39;;;;;;;4.32;2.72;;;;;;;25.69;43.40;96115.34;5077575;28;20039;-79
2021/07/29 09:22:06;;;;;;;8.20;2.67;;;;;;;26.50;42.75;96117.81;5070413;28;20035;-79
2021/07/29 09:24:33;;;;;;;5.65;2.90;;;;;;;25.75;44.03;96125.91;5076637;28;20528;-79
2021/07/29 09:26:59;;;;;;;5.03;3.17;;;;;;;25.94;43.81;96120.16;5086318;28;20032;-79
2021/07/29 09:29:28;;;;;;;4.53;2.60;;;;;;;27.13;43.00;96109.63;5068789;28;20059;-79
2021/07/29 09:32:09;;;;;;;6.68;2.70;;;;;;;26.30;44.35;96108.50;5075352;28;20027;-78
2021/07/29 09:34:44;;;;;;;5.13;2.67;;;;;;;25.26;45.49;96111.78;5073880;28;20039;-79
2021/07/29 09:37:11;;;;;;;4.75;3.10;;;;;;;25.44;44.67;96110.56;5088092;28;20028;-79
2021/07/29 09:39:37;;;;;;;5.95;3.25;;;;;;;24.50;47.28;96120.59;5078857;28;20024;-79
2021/07/29 09:42:22;;;;;;;6.07;3.05;;;;;;;25.02;47.29;96114.75;5070769;28;20082;-79
2021/07/29 09:44:50;;;;;;;6.20;3.65;;;;;;;24.24;45.77;96122.13;5076323;28;20051;-78
2021/07/29 09:47:22;;;;;;;5.55;3.22;;;;;;;24.28;46.60;96122.44;5081343;28;20143;-79
2021/07/29 09:49:51;;;;;;;;;;;;;;;23.92;47.06;96121.94;5071596;28;20032;-79
2021/07/29 09:52:20;;;;;;;5.47;2.60;;;;;;;25.10;44.71;96118.84;5085463;28;19909;-78
2021/07/29 09:54:47;;;;;;;4.65;2.90;;;;;;;25.35;44.88;96121.81;5087046;28;20105;-79
2021/07/29 09:57:13;;;;;;;6.57;3.30;;;;;;;24.42;46.19;96115.69;5072814;28;20051;-79
2021/07/29 09:59:39;;;;;;;4.90;2.85;;;;;;;24.28;47.22;96114.38;5064259;28;20048;-79
2021/07/29 10:02:06;;;;;;;6.45;3.05;;;;;;;24.42;46.60;96115.69;5065101;28;20031;-79
2021/07/29 10:04:44;;;;;;;8.70;3.05;;;;;;;23.74;47.38;96115.78;5067624;28;20048;-78
2021/07/29 10:07:18;;;;;;;5.32;3.03;;;;;;;25.34;43.70;96112.09;5081904;28;20032;-79
2021/07/29 10:09:46;;;;;;;8.63;6.00;;;;;;;24.46;45.29;96101.47;5057474;28;20042;-79
2021/07/29 10:12:19;;;;;;;5.70;3.17;;;;;;;25.22;44.43;96110.63;5071141;28;20126;-80
2021/07/29 10:14:51;;;;;;;4.03;2.78;;;;;;;23.88;46.40;96107.41;5079676;28;20814;-80
2021/07/29 10:17:18;;;;;;;7.35;2.63;;;;;;;25.21;44.48;96098.25;5066051;28;20028;-79
2021/07/29 10:20:12;;;;;;;5.55;3.08;;;;;;;26.18;42.78;96104.38;5060114;28;20137;-79
2021/07/29 10:22:39;;;;;;;4.82;2.95;;;;;;;24.93;44.64;96103.63;5067814;28;20033;-80
2021/07/29 10:25:06;;;;;;;5.25;3.15;;;;;;;25.49;44.80;96097.97;5049095;28;20137;-79
2021/07/29 10:27:31;;;;;;;4.95;3.10;;;;;;;25.65;43.37;96101.59;5047874;28;20401;-79
2021/07/29 10:30:20;;;;;;;6.00;3.30;;;;;;;25.38;43.09;96101.63;5052283;28;20028;-79
2021/07/29 10:32:48;;;;;;;8.07;3.45;;;;;;;24.96;43.94;96104.19;5035861;28;20079;-78
2021/07/29 10:35:25;;;;;;;5.80;3.47;;;;;;;25.48;43.72;96096.34;5055624;28;20173;-78
2021/07/29 10:37:55;;;;;;;4.78;2.72;;;;;;;25.83;41.84;96103.91;5057984;28;20040;-80
2021/07/29 10:40:40;;;;;;;5.60;3.42;;;;;;;26.03;42.24;96097.03;5069169;28;20499;-80
2021/07/29 10:43:24;;;;;;;5.03;2.88;;;;;;;26.92;40.41;96100.66;5060542;28;20036;-79
2021/07/29 10:45:54;;;;;;;8.30;3.42;;;;;;;27.02;39.65;96088.00;5053969;28;20389;-80
2021/07/29 10:48:43;;;;;;;4.75;3.00;;;;;;;25.42;42.34;96101.94;5050050;28;20091;-78
2021/07/29 10:51:23;;;;;;;5.60;3.38;;;;;;;25.71;42.34;96094.38;5070212;28;20483;-80
2021/07/29 10:53:51;;;;;;;5.00;2.95;;;;;;;26.73;40.35;96092.28;5069452;28;20139;-79
2021/07/29 10:56:22;;;;;;;6.15;2.95;;;;;;;26.85;41.98;96095.53;5040206;28;20899;-79
2021/07/29 10:58:50;;;;;;;4.13;2.85;;;;;;;27.09;41.03;96092.34;5069211;28;20048;-79
2021/07/29 11:01:17;;;;;;;4.47;2.80;;;;;;;26.55;41.22;96088.16;5069440;28;20133;-79
2021/07/29 11:03:54;;;;;;;13.07;3.38;;;;;;;27.18;40.46;96079.97;5069311;28;20035;-80
2021/07/29 11:06:35;;;;;;;4.70;3.03;;;;;;;27.68;40.65;96081.06;5059696;28;20477;-79
2021/07/29 11:09:14;;;;;;;5.55;3.08;;;;;;;27.68;39.16;96083.75;5060294;28;20027;-79
2021/07/29 11:11:42;;;;;;;5.78;3.15;;;;;;;28.32;39.99;96083.09;5051431;28;20063;-79
2021/07/29 11:14:08;;;;;;;5.88;3.15;;;;;;;28.13;39.68;96080.19;5069106;28;20013;-80
2021/07/29 11:16:35;;;;;;;13.15;7.85;;;;;;;27.58;40.16;96072.97;5077946;28;20024;-80
2021/07/29 11:19:04;;;;;;;7.32;3.90;;;;;;;26.29;42.79;96089.88;5061914;28;20028;-78
2021/07/29 11:21:31;;;;;;;5.47;3.15;;;;;;;27.10;41.62;96077.78;5069197;28;20058;-79
2021/07/29 11:23:56;;;;;;;5.40;3.20;;;;;;;27.71;39.36;96073.22;5045455;28;20020;-79
2021/07/29 11:26:25;;;;;;;5.30;3.15;;;;;;;27.98;38.54;96065.91;5059028;28;20024;-78
2021/07/29 11:29:16;;;;;;;5.32;3.00;;;;;;;26.99;39.46;96066.13;5082169;28;20034;-78
2021/07/29 11:31:46;;;;;;;5.88;3.30;;;;;;;27.04;39.99;96080.44;5076870;28;20501;-79
2021/07/29 11:34:12;;;;;;;8.02;3.42;;;;;;;27.79;38.22;96077.28;5079189;28;20036;-79
2021/07/29 11:36:41;;;;;;;5.15;2.83;;;;;;;28.23;36.57;96060.41;5066538;28;20071;-79
2021/07/29 11:39:08;;;;;;;6.78;3.22;;;;;;;28.29;38.60;96067.44;5065357;28;20032;-79